createdAt,value
2023-10-04T00:00:04.849Z,5.94
2023-10-04T00:00:50.098Z,5.94
2023-10-04T00:01:35.776Z,5.94
2023-10-04T00:02:19.808Z,5.94
2023-10-04T00:03:04.834Z,5.94
2023-10-04T00:03:49.978Z,5.94
2023-10-04T00:04:35.090Z,5.94
2023-10-04T00:05:19.888Z,5.94
2023-10-04T00:06:05.525Z,5.94
2023-10-04T00:06:50.493Z,5.94
2023-10-04T00:07:35.597Z,5.94
2023-10-04T00:08:20.121Z,5.94
2023-10-04T00:09:05.522Z,5.94
2023-10-04T00:09:50.228Z,5.94
2023-10-04T00:10:35.331Z,5.94
2023-10-04T00:11:20.234Z,5.94
2023-10-04T00:12:05.135Z,5.94
2023-10-04T00:12:49.937Z,398.54
2023-10-04T00:13:35.526Z,398.54
2023-10-04T00:14:20.330Z,398.54
2023-10-04T00:15:05.756Z,398.54
2023-10-04T00:15:50.476Z,398.54
2023-10-04T00:16:36.482Z,398.54
2023-10-04T00:17:20.605Z,398.54
2023-10-04T00:18:05.836Z,398.54
2023-10-04T00:18:50.730Z,398.54
2023-10-04T00:19:36.022Z,398.54
2023-10-04T00:20:21.189Z,398.54
2023-10-04T00:21:06.313Z,398.54
2023-10-04T00:21:51.228Z,398.54
2023-10-04T00:22:35.922Z,398.54
2023-10-04T00:23:20.840Z,398.54
2023-10-04T00:24:05.976Z,398.54
2023-10-04T00:24:50.473Z,6.93
2023-10-04T00:25:35.652Z,5.94
2023-10-04T00:26:21.081Z,6.93
2023-10-04T00:27:05.760Z,6.93
2023-10-04T00:27:50.766Z,7.88
2023-10-04T00:28:36.163Z,632.82
2023-10-04T00:29:21.946Z,8.91
2023-10-04T00:30:06.484Z,6.93
2023-10-04T00:30:51.905Z,6.93
2023-10-04T00:31:36.757Z,6.93
2023-10-04T00:32:22.249Z,6.93
2023-10-04T00:33:06.464Z,8.91
2023-10-04T00:33:52.003Z,8.91
2023-10-04T00:34:37.500Z,8.91
2023-10-04T00:35:25.082Z,8.91
2023-10-04T00:36:07.023Z,8.91
2023-10-04T00:36:52.262Z,8.91
2023-10-04T00:37:37.260Z,8.91
2023-10-04T00:38:22.169Z,8.91
2023-10-04T00:39:07.335Z,8.91
2023-10-04T00:39:52.311Z,8.91
2023-10-04T00:40:37.339Z,8.91
2023-10-04T00:41:22.235Z,8.91
2023-10-04T00:42:07.929Z,8.91
2023-10-04T00:42:52.316Z,8.91
2023-10-04T00:43:38.388Z,8.91
2023-10-04T00:44:22.654Z,8.91
2023-10-04T00:45:07.919Z,8.91
2023-10-04T00:45:52.362Z,8.91
2023-10-04T00:46:37.721Z,8.91
2023-10-04T00:47:22.738Z,8.91
2023-10-04T00:48:08.162Z,8.91
2023-10-04T00:48:52.841Z,8.91
2023-10-04T00:49:38.388Z,8.91
2023-10-04T00:50:24.081Z,8.91
2023-10-04T00:51:08.275Z,8.91
2023-10-04T00:51:52.870Z,8.91
2023-10-04T00:52:38.032Z,8.91
2023-10-04T00:53:23.088Z,8.91
2023-10-04T00:54:08.176Z,8.91
2023-10-04T00:54:52.790Z,8.91
2023-10-04T00:55:38.570Z,8.91
2023-10-04T00:56:23.217Z,8.91
2023-10-04T00:57:09.025Z,8.91
2023-10-04T00:57:53.434Z,8.91
2023-10-04T00:58:38.183Z,8.91
2023-10-04T00:59:23.663Z,8.91
2023-10-04T01:00:08.654Z,8.91
2023-10-04T01:00:53.669Z,8.91
2023-10-04T01:01:38.782Z,8.91
2023-10-04T01:02:24.031Z,8.91
2023-10-04T01:03:09.120Z,8.91
2023-10-04T01:03:54.230Z,8.91
2023-10-04T01:04:39.040Z,8.91
2023-10-04T01:05:24.778Z,8.91
2023-10-04T01:06:09.493Z,8.91
2023-10-04T01:06:54.002Z,8.91
2023-10-04T01:07:39.059Z,8.91
2023-10-04T01:08:24.039Z,8.91
2023-10-04T01:09:08.812Z,8.91
2023-10-04T01:09:54.242Z,8.91
2023-10-04T01:10:39.122Z,12.86
2023-10-04T01:11:24.335Z,12.86
2023-10-04T01:12:09.102Z,11.86
2023-10-04T01:12:54.154Z,9.88
2023-10-04T01:13:39.161Z,9.88
2023-10-04T01:14:24.180Z,9.88
2023-10-04T01:15:09.392Z,10.78
2023-10-04T01:15:54.472Z,10.87
2023-10-04T01:16:39.433Z,7.91
2023-10-04T01:17:24.453Z,9.88
2023-10-04T01:18:09.540Z,9.88
2023-10-04T01:18:54.599Z,11.86
2023-10-04T01:19:39.483Z,12.85
2023-10-04T01:20:25.787Z,11.88
2023-10-04T01:21:09.777Z,11.88
2023-10-04T01:21:54.763Z,12.80
2023-10-04T01:22:39.703Z,10.89
2023-10-04T01:23:25.273Z,12.86
2023-10-04T01:24:10.339Z,11.82
2023-10-04T01:24:55.101Z,9.91
2023-10-04T01:25:40.218Z,9.91
2023-10-04T01:26:25.163Z,9.91
2023-10-04T01:27:10.167Z,8.92
2023-10-04T01:27:54.759Z,10.90
2023-10-04T01:28:40.236Z,11.89
2023-10-04T01:29:25.897Z,10.90
2023-10-04T01:30:10.542Z,11.89
2023-10-04T01:30:56.133Z,10.85
2023-10-04T01:31:40.828Z,10.90
2023-10-04T01:32:27.339Z,10.90
2023-10-04T01:33:10.778Z,11.89
2023-10-04T01:33:55.624Z,8.91
2023-10-04T01:34:40.805Z,9.90
2023-10-04T01:35:26.399Z,9.90
2023-10-04T01:36:11.067Z,9.90
2023-10-04T01:36:56.088Z,9.90
2023-10-04T01:37:40.585Z,8.91
2023-10-04T01:38:26.262Z,8.92
2023-10-04T01:39:11.655Z,7.94
2023-10-04T01:39:56.198Z,8.94
2023-10-04T01:40:41.620Z,7.94
2023-10-04T01:41:26.605Z,8.94
2023-10-04T01:42:11.003Z,6.96
2023-10-04T01:42:56.216Z,6.96
2023-10-04T01:43:41.686Z,7.96
2023-10-04T01:44:26.530Z,5.97
2023-10-04T01:45:11.443Z,7.96
2023-10-04T01:45:56.525Z,7.96
2023-10-04T01:46:41.501Z,6.96
2023-10-04T01:47:27.090Z,6.96
2023-10-04T01:48:11.815Z,5.97
2023-10-04T01:48:56.933Z,5.97
2023-10-04T01:49:41.714Z,5.97
2023-10-04T01:50:26.806Z,5.97
2023-10-04T01:51:12.105Z,6.96
2023-10-04T01:51:56.981Z,6.96
2023-10-04T01:52:41.661Z,5.97
2023-10-04T01:53:26.936Z,4.97
2023-10-04T01:54:12.072Z,4.97
2023-10-04T01:54:57.410Z,7.96
2023-10-04T01:55:42.085Z,5.95
2023-10-04T01:56:27.471Z,4.97
2023-10-04T01:57:12.678Z,5.96
2023-10-04T01:57:57.702Z,6.96
2023-10-04T01:58:42.614Z,6.96
2023-10-04T01:59:27.320Z,5.97
2023-10-04T02:00:12.626Z,7.96
2023-10-04T02:00:57.712Z,5.97
2023-10-04T02:01:42.526Z,4.97
2023-10-04T02:02:29.784Z,4.97
2023-10-04T02:03:13.163Z,6.95
2023-10-04T02:03:57.813Z,6.96
2023-10-04T02:04:42.640Z,5.97
2023-10-04T02:05:27.694Z,7.94
2023-10-04T02:06:13.352Z,7.97
2023-10-04T02:06:57.492Z,6.97
2023-10-04T02:07:42.552Z,7.98
2023-10-04T02:08:27.734Z,7.98
2023-10-04T02:09:13.347Z,7.98
2023-10-04T02:09:57.934Z,6.97
2023-10-04T02:10:43.187Z,10.94
2023-10-04T02:11:28.341Z,8.97
2023-10-04T02:12:12.993Z,9.96
2023-10-04T02:12:58.044Z,8.97
2023-10-04T02:13:43.004Z,8.97
2023-10-04T02:14:27.958Z,7.97
2023-10-04T02:15:15.974Z,237.17
2023-10-04T02:15:58.283Z,7.97
2023-10-04T02:16:43.397Z,7.97
2023-10-04T02:17:28.311Z,7.98
2023-10-04T02:18:13.586Z,6.98
2023-10-04T02:18:58.710Z,7.97
2023-10-04T02:19:43.659Z,5.98
2023-10-04T02:20:28.727Z,6.97
2023-10-04T02:21:13.801Z,8.97
2023-10-04T02:21:58.727Z,7.97
2023-10-04T02:22:44.187Z,7.97
2023-10-04T02:23:29.563Z,7.97
2023-10-04T02:24:14.169Z,8.97
2023-10-04T02:24:58.815Z,8.97
2023-10-04T02:25:44.328Z,7.98
2023-10-04T02:26:28.972Z,7.98
2023-10-04T02:27:14.417Z,6.97
2023-10-04T02:27:59.496Z,7.97
2023-10-04T02:28:44.381Z,6.86
2023-10-04T02:29:29.342Z,6.97
2023-10-04T02:30:14.551Z,6.97
2023-10-04T02:30:59.220Z,7.96
2023-10-04T02:31:44.635Z,8.95
2023-10-04T02:32:29.329Z,6.97
2023-10-04T02:33:14.605Z,6.97
2023-10-04T02:33:59.982Z,7.97
2023-10-04T02:34:44.688Z,8.97
2023-10-04T02:35:29.679Z,8.97
2023-10-04T02:36:14.988Z,10.34
2023-10-04T02:37:00.132Z,10.34
2023-10-04T02:37:45.216Z,10.34
2023-10-04T02:38:29.973Z,10.34
2023-10-04T02:39:14.946Z,8.97
2023-10-04T02:40:00.188Z,8.97
2023-10-04T02:40:44.831Z,7.97
2023-10-04T02:41:29.893Z,8.97
2023-10-04T02:42:15.000Z,8.97
2023-10-04T02:43:00.318Z,8.97
2023-10-04T02:43:45.165Z,8.97
2023-10-04T02:44:30.626Z,8.97
2023-10-04T02:45:15.454Z,7.97
2023-10-04T02:46:00.144Z,6.97
2023-10-04T02:46:45.575Z,7.96
2023-10-04T02:47:30.674Z,6.97
2023-10-04T02:48:16.010Z,7.95
2023-10-04T02:49:00.863Z,8.96
2023-10-04T02:49:45.815Z,7.96
2023-10-04T02:50:30.874Z,7.97
2023-10-04T02:51:16.093Z,8.97
2023-10-04T02:52:01.126Z,8.97
2023-10-04T02:52:45.958Z,7.97
2023-10-04T02:53:31.370Z,7.97
2023-10-04T02:54:16.061Z,7.96
2023-10-04T02:55:00.906Z,6.97
2023-10-04T02:55:45.962Z,7.96
2023-10-04T02:56:31.060Z,6.97
2023-10-04T02:57:17.476Z,6.97
2023-10-04T02:58:01.357Z,6.97
2023-10-04T02:58:46.275Z,7.96
2023-10-04T02:59:31.241Z,6.97
2023-10-04T03:00:17.613Z,8.96
2023-10-04T03:01:01.206Z,8.95
2023-10-04T03:01:46.008Z,9.96
2023-10-04T03:02:31.476Z,7.95
2023-10-04T03:03:16.980Z,9.96
2023-10-04T03:04:02.155Z,8.96
2023-10-04T03:04:46.354Z,9.96
2023-10-04T03:05:31.329Z,7.96
2023-10-04T03:06:16.566Z,9.96
2023-10-04T03:07:02.020Z,8.96
2023-10-04T03:07:46.793Z,7.96
2023-10-04T03:08:31.958Z,7.96
2023-10-04T03:09:16.818Z,7.96
2023-10-04T03:10:01.830Z,7.96
2023-10-04T03:10:46.477Z,7.96
2023-10-04T03:11:31.645Z,7.96
2023-10-04T03:12:17.350Z,7.96
2023-10-04T03:13:01.748Z,7.96
2023-10-04T03:13:47.219Z,7.96
2023-10-04T03:14:32.058Z,7.96
2023-10-04T03:15:17.308Z,7.96
2023-10-04T03:16:01.972Z,7.94
2023-10-04T03:16:46.932Z,8.96
2023-10-04T03:17:32.315Z,6.95
2023-10-04T03:18:17.711Z,6.95
2023-10-04T03:19:03.039Z,7.96
2023-10-04T03:19:47.363Z,8.96
2023-10-04T03:20:33.044Z,8.96
2023-10-04T03:21:17.914Z,7.96
2023-10-04T03:22:02.953Z,7.96
2023-10-04T03:22:48.003Z,7.96
2023-10-04T03:23:33.024Z,7.96
2023-10-04T03:24:19.076Z,7.96
2023-10-04T03:25:02.815Z,7.96
2023-10-04T03:25:48.022Z,7.96
2023-10-04T03:26:32.731Z,7.96
2023-10-04T03:27:18.395Z,7.96
2023-10-04T03:28:02.879Z,7.96
2023-10-04T03:28:48.048Z,6.96
2023-10-04T03:29:32.889Z,7.94
2023-10-04T03:30:18.180Z,7.96
2023-10-04T03:31:03.454Z,7.96
2023-10-04T03:31:48.571Z,7.96
2023-10-04T03:32:33.447Z,7.96
2023-10-04T03:33:19.582Z,7.96
2023-10-04T03:34:05.129Z,7.96
2023-10-04T03:34:48.953Z,7.96
2023-10-04T03:35:34.507Z,7.96
2023-10-04T03:36:19.277Z,7.96
2023-10-04T03:37:04.171Z,7.96
2023-10-04T03:37:49.834Z,7.96
2023-10-04T03:38:34.331Z,7.96
2023-10-04T03:39:19.666Z,7.96
2023-10-04T03:40:04.211Z,7.96
2023-10-04T03:40:49.601Z,7.96
2023-10-04T03:41:34.304Z,7.96
2023-10-04T03:42:19.295Z,7.96
2023-10-04T03:43:04.518Z,7.96
2023-10-04T03:43:49.580Z,7.96
2023-10-04T03:44:34.113Z,7.96
2023-10-04T03:45:19.581Z,7.96
2023-10-04T03:46:04.805Z,7.96
2023-10-04T03:46:49.388Z,7.96
2023-10-04T03:47:34.460Z,7.96
2023-10-04T03:48:19.674Z,7.96
2023-10-04T03:49:04.899Z,7.96
2023-10-04T03:49:50.514Z,7.96
2023-10-04T03:50:34.785Z,7.96
2023-10-04T03:51:19.958Z,7.96
2023-10-04T03:52:05.107Z,7.96
2023-10-04T03:52:50.067Z,7.96
2023-10-04T03:53:35.325Z,7.96
2023-10-04T03:54:19.999Z,7.96
2023-10-04T03:55:05.135Z,7.96
2023-10-04T03:55:49.806Z,8.96
2023-10-04T03:56:34.751Z,10.95
2023-10-04T03:57:20.027Z,10.95
2023-10-04T03:58:04.935Z,10.95
2023-10-04T03:58:50.803Z,8.94
2023-10-04T03:59:35.047Z,8.96
2023-10-04T04:00:20.308Z,9.96
2023-10-04T04:01:05.134Z,9.96
2023-10-04T04:01:50.615Z,10.95
2023-10-04T04:02:35.527Z,9.96
2023-10-04T04:03:20.772Z,10.95
2023-10-04T04:04:05.624Z,9.96
2023-10-04T04:04:50.774Z,9.96
2023-10-04T04:05:35.622Z,12.94
2023-10-04T04:06:20.799Z,13.94
2023-10-04T04:07:05.711Z,12.94
2023-10-04T04:07:50.659Z,14.91
2023-10-04T04:08:36.134Z,11.95
2023-10-04T04:09:20.999Z,10.95
2023-10-04T04:10:06.056Z,10.95
2023-10-04T04:10:51.206Z,10.95
2023-10-04T04:11:36.315Z,9.96
2023-10-04T04:12:21.016Z,11.95
2023-10-04T04:13:06.073Z,11.92
2023-10-04T04:13:51.116Z,13.94
2023-10-04T04:14:36.087Z,10.95
2023-10-04T04:15:22.599Z,11.95
2023-10-04T04:16:06.643Z,10.95
2023-10-04T04:16:51.882Z,10.95
2023-10-04T04:17:36.398Z,9.96
2023-10-04T04:18:21.570Z,10.95
2023-10-04T04:19:06.643Z,10.95
2023-10-04T04:19:51.664Z,10.95
2023-10-04T04:20:37.260Z,10.95
2023-10-04T04:21:21.745Z,12.94
2023-10-04T04:22:07.095Z,11.95
2023-10-04T04:22:52.114Z,12.94
2023-10-04T04:23:37.059Z,12.94
2023-10-04T04:24:22.122Z,10.95
2023-10-04T04:25:06.970Z,11.95
2023-10-04T04:25:52.366Z,10.94
2023-10-04T04:26:37.409Z,13.94
2023-10-04T04:27:22.170Z,12.94
2023-10-04T04:28:07.298Z,12.94
2023-10-04T04:28:52.369Z,13.94
2023-10-04T04:29:37.300Z,13.94
2023-10-04T04:30:22.332Z,11.95
2023-10-04T04:31:07.391Z,11.95
2023-10-04T04:31:52.264Z,11.95
2023-10-04T04:32:37.878Z,12.94
2023-10-04T04:33:22.641Z,10.94
2023-10-04T04:34:07.964Z,11.94
2023-10-04T04:34:52.914Z,13.94
2023-10-04T04:35:37.786Z,13.94
2023-10-04T04:36:22.704Z,13.90
2023-10-04T04:37:07.665Z,11.95
2023-10-04T04:37:53.037Z,12.94
2023-10-04T04:38:38.053Z,11.95
2023-10-04T04:39:23.285Z,12.94
2023-10-04T04:40:07.994Z,10.94
2023-10-04T04:40:52.944Z,10.94
2023-10-04T04:41:37.897Z,11.92
2023-10-04T04:42:23.293Z,11.94
2023-10-04T04:43:08.111Z,13.93
2023-10-04T04:43:53.278Z,13.94
2023-10-04T04:44:38.226Z,14.93
2023-10-04T04:45:23.828Z,13.93
2023-10-04T04:46:08.297Z,14.92
2023-10-04T04:46:53.415Z,13.93
2023-10-04T04:47:38.300Z,12.94
2023-10-04T04:48:23.616Z,12.93
2023-10-04T04:49:08.411Z,12.93
2023-10-04T04:49:53.733Z,12.93
2023-10-04T04:50:39.334Z,12.93
2023-10-04T04:51:24.340Z,12.93
2023-10-04T04:52:09.434Z,12.93
2023-10-04T04:52:54.469Z,12.93
2023-10-04T04:53:39.314Z,12.93
2023-10-04T04:54:24.309Z,12.93
2023-10-04T04:55:09.256Z,12.93
2023-10-04T04:55:54.521Z,12.93
2023-10-04T04:56:39.330Z,12.93
2023-10-04T04:57:24.632Z,12.93
2023-10-04T04:58:09.676Z,12.93
2023-10-04T04:58:54.303Z,12.93
2023-10-04T04:59:39.879Z,12.88
2023-10-04T05:00:26.127Z,13.93
2023-10-04T05:01:09.401Z,13.92
2023-10-04T05:01:54.700Z,13.92
2023-10-04T05:02:39.916Z,11.93
2023-10-04T05:03:24.281Z,11.93
2023-10-04T05:04:09.714Z,13.92
2023-10-04T05:04:54.930Z,13.92
2023-10-04T05:05:39.505Z,11.93
2023-10-04T05:06:24.750Z,10.93
2023-10-04T05:07:09.655Z,10.93
2023-10-04T05:07:54.567Z,11.93
2023-10-04T05:08:39.626Z,14.91
2023-10-04T05:09:25.169Z,12.92
2023-10-04T05:10:10.478Z,12.92
2023-10-04T05:10:55.722Z,12.92
2023-10-04T05:11:40.367Z,12.92
2023-10-04T05:12:25.720Z,12.92
2023-10-04T05:13:10.578Z,12.92
2023-10-04T05:13:55.690Z,12.92
2023-10-04T05:14:40.699Z,12.92
2023-10-04T05:15:26.815Z,12.92
2023-10-04T05:16:10.700Z,12.92
2023-10-04T05:16:55.966Z,12.92
2023-10-04T05:17:40.976Z,12.92
2023-10-04T05:18:25.822Z,12.92
2023-10-04T05:19:10.759Z,12.92
2023-10-04T05:19:56.086Z,12.92
2023-10-04T05:20:42.221Z,12.92
2023-10-04T05:21:26.080Z,12.92
2023-10-04T05:22:11.765Z,12.92
2023-10-04T05:22:58.053Z,12.92
2023-10-04T05:23:41.689Z,12.92
2023-10-04T05:24:26.856Z,12.92
2023-10-04T05:25:11.448Z,12.92
2023-10-04T05:25:56.679Z,12.92
2023-10-04T05:26:41.729Z,12.92
2023-10-04T05:27:26.723Z,12.92
2023-10-04T05:28:11.720Z,12.92
2023-10-04T05:28:56.876Z,12.92
2023-10-04T05:29:41.614Z,12.92
2023-10-04T05:30:27.859Z,12.92
2023-10-04T05:31:12.094Z,12.92
2023-10-04T05:31:57.130Z,12.92
2023-10-04T05:32:42.129Z,12.92
2023-10-04T05:33:27.239Z,12.92
2023-10-04T05:34:13.249Z,12.92
2023-10-04T05:34:57.024Z,12.92
2023-10-04T05:35:42.065Z,12.92
2023-10-04T05:36:27.332Z,12.92
2023-10-04T05:37:12.303Z,12.92
2023-10-04T05:37:57.304Z,12.92
2023-10-04T05:38:42.620Z,12.92
2023-10-04T05:39:27.578Z,12.92
2023-10-04T05:40:12.610Z,12.92
2023-10-04T05:40:57.875Z,12.92
2023-10-04T05:41:42.620Z,12.92
2023-10-04T05:42:28.248Z,12.92
2023-10-04T05:43:13.354Z,12.92
2023-10-04T05:43:58.533Z,12.92
2023-10-04T05:44:43.210Z,12.92
2023-10-04T05:45:27.942Z,12.92
2023-10-04T05:46:13.705Z,12.92
2023-10-04T05:46:58.020Z,12.92
2023-10-04T05:47:43.557Z,12.92
2023-10-04T05:48:28.661Z,12.92
2023-10-04T05:49:14.332Z,12.92
2023-10-04T05:49:58.554Z,12.92
2023-10-04T05:50:43.696Z,12.92
2023-10-04T05:51:28.686Z,12.92
2023-10-04T05:52:13.518Z,310.57
2023-10-04T05:52:58.611Z,310.57
2023-10-04T05:53:44.034Z,310.57
2023-10-04T05:54:30.807Z,310.57
2023-10-04T05:55:14.959Z,310.57
2023-10-04T05:55:58.948Z,310.57
2023-10-04T05:56:43.961Z,310.57
2023-10-04T05:57:29.013Z,310.57
2023-10-04T05:58:14.178Z,310.57
2023-10-04T05:58:58.607Z,310.57
2023-10-04T05:59:44.193Z,310.57
2023-10-04T06:00:29.183Z,310.57
2023-10-04T06:01:15.356Z,310.57
2023-10-04T06:01:59.041Z,310.57
2023-10-04T06:02:44.342Z,310.57
2023-10-04T06:03:31.496Z,310.57
2023-10-04T06:04:14.520Z,310.57
2023-10-04T06:04:59.263Z,310.57
2023-10-04T06:05:44.567Z,310.57
2023-10-04T06:06:29.848Z,310.57
2023-10-04T06:07:14.764Z,310.57
2023-10-04T06:07:59.605Z,310.57
2023-10-04T06:08:44.594Z,310.57
2023-10-04T06:09:30.055Z,310.57
2023-10-04T06:10:17.923Z,310.57
2023-10-04T06:10:59.770Z,310.57
2023-10-04T06:11:44.890Z,310.57
2023-10-04T06:12:30.315Z,310.57
2023-10-04T06:13:14.962Z,310.57
2023-10-04T06:13:59.956Z,310.57
2023-10-04T06:14:45.106Z,310.57
2023-10-04T06:15:30.815Z,310.57
2023-10-04T06:16:15.272Z,310.57
2023-10-04T06:17:00.285Z,310.57
2023-10-04T06:17:45.391Z,310.57
2023-10-04T06:18:30.621Z,310.57
2023-10-04T06:19:27.094Z,310.57
2023-10-04T06:20:00.622Z,310.57
2023-10-04T06:20:46.455Z,310.57
2023-10-04T06:21:31.357Z,310.57
2023-10-04T06:22:15.800Z,310.57
2023-10-04T06:23:00.321Z,310.57
2023-10-04T06:23:46.162Z,310.57
2023-10-04T06:24:30.814Z,310.57
2023-10-04T06:25:15.897Z,310.57
2023-10-04T06:26:01.105Z,310.57
2023-10-04T06:26:46.000Z,310.57
2023-10-04T06:27:31.066Z,310.57
2023-10-04T06:28:16.227Z,310.57
2023-10-04T06:29:01.549Z,310.57
2023-10-04T06:29:46.174Z,310.57
2023-10-04T06:30:31.277Z,310.57
2023-10-04T06:31:16.653Z,310.57
2023-10-04T06:32:01.444Z,310.57
2023-10-04T06:32:46.173Z,310.57
2023-10-04T06:33:31.434Z,310.57
2023-10-04T06:34:16.366Z,310.57
2023-10-04T06:35:01.520Z,310.57
2023-10-04T06:35:46.580Z,310.57
2023-10-04T06:36:31.625Z,310.57
2023-10-04T06:37:16.596Z,310.57
2023-10-04T06:38:01.728Z,310.57
2023-10-04T06:38:46.617Z,310.57
2023-10-04T06:39:32.182Z,310.57
2023-10-04T06:40:16.639Z,310.57
2023-10-04T06:41:02.156Z,310.57
2023-10-04T06:41:46.835Z,310.57
2023-10-04T06:42:31.697Z,310.57
2023-10-04T06:43:16.949Z,310.57
2023-10-04T06:44:02.129Z,310.57
2023-10-04T06:44:47.248Z,310.57
2023-10-04T06:45:32.414Z,310.57
2023-10-04T06:46:17.085Z,310.57
2023-10-04T06:47:02.330Z,310.57
2023-10-04T06:47:47.390Z,310.57
2023-10-04T06:48:32.556Z,310.57
2023-10-04T06:49:17.429Z,310.57
2023-10-04T06:50:02.342Z,310.57
2023-10-04T06:50:47.786Z,310.57
2023-10-04T06:51:32.716Z,310.57
2023-10-04T06:52:17.831Z,310.57
2023-10-04T06:53:02.991Z,310.57
2023-10-04T06:53:47.630Z,310.57
2023-10-04T06:54:32.876Z,310.57
2023-10-04T06:55:18.401Z,310.57
2023-10-04T06:56:03.002Z,310.57
2023-10-04T06:56:47.865Z,310.57
2023-10-04T06:57:32.937Z,310.57
2023-10-04T06:58:17.967Z,310.57
2023-10-04T06:59:03.732Z,310.57
2023-10-04T06:59:48.296Z,310.57
2023-10-04T07:00:32.990Z,310.57
2023-10-04T07:01:18.438Z,310.57
2023-10-04T07:02:03.543Z,310.57
2023-10-04T07:02:48.675Z,310.57
2023-10-04T07:03:33.475Z,310.57
2023-10-04T07:04:18.713Z,310.57
2023-10-04T07:05:03.481Z,310.57
2023-10-04T07:05:48.276Z,310.57
2023-10-04T07:06:33.535Z,310.57
2023-10-04T07:07:19.169Z,310.57
2023-10-04T07:08:03.539Z,310.57
2023-10-04T07:08:48.675Z,310.57
2023-10-04T07:09:33.753Z,310.57
2023-10-04T07:10:19.013Z,310.57
2023-10-04T07:11:05.053Z,310.57
2023-10-04T07:11:48.814Z,310.57
2023-10-04T07:12:37.393Z,310.57
2023-10-04T07:13:18.587Z,310.57
2023-10-04T07:14:03.824Z,310.57
2023-10-04T07:14:48.679Z,310.57
2023-10-04T07:15:34.340Z,310.57
2023-10-04T07:16:19.185Z,310.57
2023-10-04T07:17:04.177Z,310.57
2023-10-04T07:17:49.514Z,310.57
2023-10-04T07:18:34.562Z,310.57
2023-10-04T07:19:19.505Z,310.57
2023-10-04T07:20:04.408Z,310.57
2023-10-04T07:20:49.367Z,310.57
2023-10-04T07:21:34.273Z,310.57
2023-10-04T07:22:19.799Z,310.57
2023-10-04T07:23:04.420Z,310.57
2023-10-04T07:23:49.773Z,310.57
2023-10-04T07:24:34.669Z,310.57
2023-10-04T07:25:20.000Z,310.57
2023-10-04T07:26:05.198Z,310.57
2023-10-04T07:26:50.144Z,310.57
2023-10-04T07:27:34.904Z,310.57
2023-10-04T07:28:20.038Z,310.57
2023-10-04T07:29:05.210Z,310.57
2023-10-04T07:29:50.244Z,310.57
2023-10-04T07:30:35.303Z,310.57
2023-10-04T07:31:19.853Z,310.57
2023-10-04T07:32:05.484Z,310.57
2023-10-04T07:32:50.284Z,310.57
2023-10-04T07:33:35.251Z,310.57
2023-10-04T07:34:20.370Z,310.57
2023-10-04T07:35:05.354Z,310.57
2023-10-04T07:35:50.588Z,310.57
2023-10-04T07:36:36.237Z,310.57
2023-10-04T07:37:20.829Z,310.57
2023-10-04T07:38:05.665Z,310.57
2023-10-04T07:38:51.041Z,310.57
2023-10-04T07:39:35.947Z,310.57
2023-10-04T07:40:20.880Z,310.57
2023-10-04T07:41:05.891Z,310.57
2023-10-04T07:41:50.955Z,310.57
2023-10-04T07:42:36.357Z,310.57
2023-10-04T07:43:21.050Z,310.57
2023-10-04T07:44:06.441Z,310.57
2023-10-04T07:44:51.164Z,310.57
2023-10-04T07:45:36.294Z,310.57
2023-10-04T07:46:21.448Z,310.57
2023-10-04T07:47:07.294Z,310.57
2023-10-04T07:47:51.828Z,310.57
2023-10-04T07:48:36.684Z,310.57
2023-10-04T07:49:21.872Z,310.57
2023-10-04T07:50:06.671Z,310.57
2023-10-04T07:50:51.722Z,310.57
2023-10-04T07:51:36.949Z,310.57
2023-10-04T07:52:21.913Z,310.57
2023-10-04T07:53:07.105Z,310.57
2023-10-04T07:53:51.885Z,310.57
2023-10-04T07:54:37.494Z,310.57
2023-10-04T07:55:24.233Z,310.57
2023-10-04T07:56:07.116Z,310.57
2023-10-04T07:56:52.075Z,310.57
2023-10-04T07:57:37.559Z,310.57
2023-10-04T07:58:22.143Z,310.57
2023-10-04T07:59:07.440Z,310.57
2023-10-04T07:59:52.656Z,310.57
2023-10-04T08:00:38.401Z,310.57
2023-10-04T08:01:22.568Z,310.57
2023-10-04T08:02:08.618Z,310.57
2023-10-04T08:02:52.833Z,310.57
2023-10-04T08:03:37.659Z,310.57
2023-10-04T08:04:22.814Z,310.57
2023-10-04T08:05:07.856Z,310.57
2023-10-04T08:05:53.395Z,310.57
2023-10-04T08:06:37.735Z,310.57
2023-10-04T08:07:22.981Z,310.57
2023-10-04T08:08:11.444Z,310.57
2023-10-04T08:08:54.607Z,310.57
2023-10-04T08:09:38.371Z,310.57
2023-10-04T08:10:24.745Z,310.57
2023-10-04T08:11:08.515Z,8.75
2023-10-04T08:11:53.360Z,8.75
2023-10-04T08:12:37.769Z,233.41
2023-10-04T08:13:22.694Z,416.02
2023-10-04T08:14:09.700Z,416.02
2023-10-04T08:14:57.329Z,416.02
2023-10-04T08:15:40.446Z,416.02
2023-10-04T08:16:24.683Z,416.02
2023-10-04T08:17:10.332Z,416.02
2023-10-04T08:17:54.891Z,416.02
2023-10-04T08:18:41.828Z,416.02
2023-10-04T08:19:24.520Z,416.02
2023-10-04T08:20:09.960Z,416.02
2023-10-04T08:20:55.134Z,5.83
2023-10-04T08:21:39.838Z,5.83
2023-10-04T08:22:23.879Z,5.83
2023-10-04T08:23:08.873Z,5.83
2023-10-04T08:23:54.100Z,5.83
2023-10-04T08:24:38.963Z,5.83
2023-10-04T08:25:25.178Z,5.83
2023-10-04T08:26:09.016Z,5.83
2023-10-04T08:26:55.141Z,5.83
2023-10-04T08:27:39.553Z,5.83
2023-10-04T08:28:25.808Z,5.83
2023-10-04T08:29:09.306Z,5.83
2023-10-04T08:29:54.038Z,5.83
2023-10-04T08:30:39.159Z,5.83
2023-10-04T08:31:24.341Z,5.83
2023-10-04T08:32:09.653Z,5.83
2023-10-04T08:32:55.274Z,4.78
2023-10-04T08:33:39.709Z,87.27
2023-10-04T08:34:26.199Z,251.33
2023-10-04T08:35:12.999Z,251.33
2023-10-04T08:35:57.967Z,5.74
2023-10-04T08:36:39.913Z,4.78
2023-10-04T08:37:26.803Z,130.49
2023-10-04T08:38:09.688Z,66.83
2023-10-04T08:38:54.106Z,4.73
2023-10-04T08:39:39.922Z,234.55
2023-10-04T08:40:25.032Z,5.44
2023-10-04T08:41:09.371Z,5.44
2023-10-04T08:41:54.425Z,86.87
2023-10-04T08:42:39.737Z,43.70
2023-10-04T08:43:24.537Z,20.55
2023-10-04T08:44:09.598Z,57.66
2023-10-04T08:44:54.551Z,158.07
2023-10-04T08:45:39.865Z,180.77
2023-10-04T08:46:24.741Z,5.71
2023-10-04T08:47:09.770Z,85.98
2023-10-04T08:47:55.165Z,187.48
2023-10-04T08:48:40.187Z,357.85
2023-10-04T08:49:25.135Z,295.00
2023-10-04T08:50:10.292Z,294.69
2023-10-04T08:50:55.314Z,284.51
2023-10-04T08:51:40.838Z,306.97
2023-10-04T08:52:25.425Z,298.12
2023-10-04T08:53:10.291Z,303.38
2023-10-04T08:53:55.641Z,289.93
2023-10-04T08:54:40.706Z,163.23
2023-10-04T08:55:26.203Z,304.88
2023-10-04T08:56:12.401Z,304.88
2023-10-04T08:56:55.837Z,294.69
2023-10-04T08:57:40.721Z,232.58
2023-10-04T08:58:25.789Z,55.85
2023-10-04T08:59:11.096Z,90.19
2023-10-04T08:59:56.096Z,241.03
2023-10-04T09:00:41.590Z,277.65
2023-10-04T09:01:29.161Z,277.65
2023-10-04T09:02:13.368Z,277.65
2023-10-04T09:02:56.246Z,298.89
2023-10-04T09:03:41.206Z,251.00
2023-10-04T09:04:26.355Z,317.95
2023-10-04T09:05:11.829Z,317.95
2023-10-04T09:05:56.853Z,317.95
2023-10-04T09:06:41.542Z,5.81
2023-10-04T09:07:26.496Z,5.81
2023-10-04T09:08:12.073Z,4.84
2023-10-04T09:08:56.716Z,4.84
2023-10-04T09:09:44.122Z,4.84
2023-10-04T09:10:27.585Z,4.84
2023-10-04T09:11:12.367Z,4.84
2023-10-04T09:11:57.971Z,4.84
2023-10-04T09:12:57.686Z,4.84
2023-10-04T09:13:27.420Z,4.84
2023-10-04T09:14:12.583Z,4.84
2023-10-04T09:14:57.665Z,4.84
2023-10-04T09:15:42.718Z,4.84
2023-10-04T09:16:27.906Z,4.84
2023-10-04T09:17:13.974Z,2.93
2023-10-04T09:17:57.859Z,2.93
2023-10-04T09:18:42.340Z,3.91
2023-10-04T09:19:27.665Z,3.91
2023-10-04T09:20:13.179Z,3.91
2023-10-04T09:20:57.895Z,3.91
2023-10-04T09:21:43.055Z,3.91
2023-10-04T09:22:27.796Z,3.91
2023-10-04T09:23:12.970Z,3.91
2023-10-04T09:23:58.033Z,3.91
2023-10-04T09:24:42.850Z,3.91
2023-10-04T09:25:28.239Z,3.91
2023-10-04T09:26:12.655Z,3.91
2023-10-04T09:26:58.260Z,3.91
2023-10-04T09:27:43.320Z,3.91
2023-10-04T09:28:27.746Z,2.93
2023-10-04T09:29:13.220Z,3.91
2023-10-04T09:29:58.161Z,2.93
2023-10-04T09:30:42.997Z,2.93
2023-10-04T09:31:28.092Z,2.93
2023-10-04T09:32:13.217Z,2.93
2023-10-04T09:32:58.815Z,2.93
2023-10-04T09:33:44.014Z,516.04
2023-10-04T09:34:28.491Z,2.93
2023-10-04T09:35:13.615Z,2.94
2023-10-04T09:35:59.443Z,2.94
2023-10-04T09:36:43.548Z,2.93
2023-10-04T09:37:28.399Z,1.96
2023-10-04T09:38:13.634Z,2.93
2023-10-04T09:38:58.720Z,2.93
2023-10-04T09:39:43.957Z,2.93
2023-10-04T09:40:29.576Z,2.93
2023-10-04T09:41:16.145Z,2.93
2023-10-04T09:41:59.157Z,2.93
2023-10-04T09:42:44.079Z,2.94